Time;durP1;ratioP1;P1;durP2;ratioP2;P2;SDS_P1;SDS_P2;PMS_P1;PMS_P2;Temp;Humidity;BMP_temperature;BMP_pressure;BME280_temperature;BME280_humidity;BME280_pressure;Samples;Min_cycle;Max_cycle;Signal;HPM_P1;HPM_P2
2021/09/19 00:01:55;;;;;;;4.07;3.17;;;14.90;99.90;;;;;;5021955;28;20018;-85
2021/09/19 00:04:21;;;;;;;4.15;3.13;;;14.80;99.90;;;;;;5022487;28;20025;-85
2021/09/19 00:06:47;;;;;;;4.10;3.20;;;14.80;99.90;;;;;;5030479;28;20523;-85
2021/09/19 00:09:13;;;;;;;5.18;3.85;;;14.80;99.90;;;;;;5017462;28;20049;-85
2021/09/19 00:11:40;;;;;;;5.45;3.65;;;14.80;99.90;;;;;;5033571;28;20141;-85
2021/09/19 00:14:06;;;;;;;6.25;3.67;;;14.80;99.90;;;;;;5025287;28;20022;-86
2021/09/19 00:16:33;;;;;;;4.63;3.60;;;14.80;99.90;;;;;;5028021;28;20060;-85
2021/09/19 00:19:00;;;;;;;5.97;3.80;;;14.80;99.90;;;;;;5018151;28;20478;-83
2021/09/19 00:21:25;;;;;;;4.55;3.22;;;14.70;99.90;;;;;;5033850;28;20040;-85
2021/09/19 00:23:51;;;;;;;4.68;3.70;;;14.70;99.90;;;;;;5025794;28;20026;-84
2021/09/19 00:26:17;;;;;;;4.93;3.80;;;14.70;99.90;;;;;;5024727;28;20462;-84
2021/09/19 00:28:44;;;;;;;5.38;3.53;;;14.70;99.90;;;;;;5018788;28;20033;-85
2021/09/19 00:31:10;;;;;;;3.72;2.88;;;14.70;99.90;;;;;;5029974;28;20458;-84
2021/09/19 00:33:36;;;;;;;4.05;3.13;;;14.70;99.90;;;;;;5019252;28;20083;-84
2021/09/19 00:36:02;;;;;;;4.10;3.53;;;14.70;99.90;;;;;;5025933;28;20026;-84
2021/09/19 00:38:28;;;;;;;4.43;3.10;;;14.70;99.90;;;;;;5025904;28;20024;-86
2021/09/19 00:40:54;;;;;;;4.43;3.40;;;14.70;99.90;;;;;;5018718;28;20413;-84
2021/09/19 00:43:20;;;;;;;4.35;3.65;;;14.60;99.90;;;;;;5030891;28;20044;-84
2021/09/19 00:45:46;;;;;;;5.53;3.97;;;14.60;99.90;;;;;;5019764;28;20033;-85
2021/09/19 00:48:12;;;;;;;6.05;3.60;;;14.60;99.90;;;;;;5022974;28;20072;-84
2021/09/19 00:50:38;;;;;;;4.40;3.55;;;14.60;99.90;;;;;;5027063;28;20063;-85
2021/09/19 00:53:06;;;;;;;4.90;3.38;;;14.60;99.90;;;;;;5016493;28;20029;-86
2021/09/19 00:55:32;;;;;;;5.35;3.92;;;14.60;99.90;;;;;;5029671;28;20064;-86
2021/09/19 00:57:58;;;;;;;5.68;4.68;;;14.50;99.90;;;;;;5022723;28;20029;-84
2021/09/19 01:00:29;;;;;;;5.88;3.72;;;14.60;99.90;;;;;;5021174;28;20072;-83
2021/09/19 01:02:56;;;;;;;4.40;3.47;;;14.50;99.90;;;;;;5029998;28;20022;-83
2021/09/19 01:05:23;;;;;;;4.93;3.67;;;14.50;99.90;;;;;;5016343;28;20017;-84
2021/09/19 01:07:50;;;;;;;5.45;4.13;;;14.50;99.90;;;;;;5026467;28;20017;-84
2021/09/19 01:10:20;;;;;;;4.97;4.40;;;14.50;99.90;;;;;;5032511;28;20591;-84
2021/09/19 01:12:50;;;;;;;5.85;4.53;;;14.50;99.90;;;;;;5020801;28;20469;-85
2021/09/19 01:15:16;;;;;;;5.57;4.43;;;14.40;99.90;;;;;;5049789;28;20103;-85
2021/09/19 01:17:42;;;;;;;5.45;4.53;;;14.50;99.90;;;;;;5022370;28;20550;-85
2021/09/19 01:20:13;;;;;;;5.47;4.57;;;14.40;99.90;;;;;;5026037;28;20041;-85
2021/09/19 01:22:46;;;;;;;5.60;4.65;;;14.40;99.90;;;;;;5030042;28;20354;-85
2021/09/19 01:25:15;;;;;;;5.60;4.60;;;14.40;99.90;;;;;;5036883;28;20398;-85
2021/09/19 01:27:43;;;;;;;5.53;4.40;;;14.40;99.90;;;;;;5047583;28;20783;-85
2021/09/19 01:30:10;;;;;;;5.40;4.55;;;14.40;99.90;;;;;;5025366;28;20031;-84
2021/09/19 01:32:40;;;;;;;5.55;4.38;;;14.40;99.90;;;;;;5039884;28;20501;-85
2021/09/19 01:35:07;;;;;;;6.82;5.18;;;14.40;99.90;;;;;;5031911;28;20492;-85
2021/09/19 01:37:34;;;;;;;6.80;5.68;;;14.30;99.90;;;;;;5038267;28;20025;-85
2021/09/19 01:40:00;;;;;;;6.10;4.70;;;14.30;99.90;;;;;;5027054;28;20021;-85
2021/09/19 01:42:27;;;;;;;6.35;5.15;;;14.30;99.90;;;;;;5027686;28;20037;-84
2021/09/19 01:44:53;;;;;;;7.75;5.05;;;14.30;99.90;;;;;;5037672;28;20033;-85
2021/09/19 01:47:19;;;;;;;5.30;4.15;;;14.30;99.90;;;;;;5049606;28;20029;-85
2021/09/19 01:49:50;;;;;;;5.47;4.32;;;14.30;99.90;;;;;;5022358;28;20025;-85
2021/09/19 01:52:18;;;;;;;4.72;4.00;;;14.30;99.90;;;;;;5042290;28;20041;-85
2021/09/19 01:54:44;;;;;;;5.15;4.25;;;14.20;99.90;;;;;;5029995;28;20025;-84
2021/09/19 01:57:10;;;;;;;6.78;4.82;;;14.30;99.90;;;;;;5018834;28;20600;-85
2021/09/19 01:59:36;;;;;;;5.85;4.70;;;14.20;99.90;;;;;;5029913;28;20151;-85
2021/09/19 02:02:02;;;;;;;6.10;5.15;;;14.20;99.90;;;;;;5024387;28;20074;-85
2021/09/19 02:04:28;;;;;;;6.10;4.75;;;14.20;99.90;;;;;;5022644;28;20032;-85
2021/09/19 02:06:54;;;;;;;5.70;5.00;;;14.20;99.90;;;;;;5048946;28;20032;-85
2021/09/19 02:09:21;;;;;;;5.45;4.47;;;14.20;99.90;;;;;;5018443;28;20017;-85
2021/09/19 02:11:47;;;;;;;5.97;4.78;;;14.10;99.90;;;;;;5028456;28;20022;-84
2021/09/19 02:14:13;;;;;;;6.50;5.10;;;14.10;99.90;;;;;;5025548;28;20090;-83
2021/09/19 02:16:39;;;;;;;6.85;4.90;;;14.10;99.90;;;;;;5039351;28;20061;-84
2021/09/19 02:19:06;;;;;;;5.40;4.63;;;14.10;99.90;;;;;;5033343;28;20025;-85
2021/09/19 02:21:32;;;;;;;5.65;5.05;;;14.10;99.90;;;;;;5042032;28;20020;-85
2021/09/19 02:23:58;;;;;;;6.15;5.35;;;14.10;99.90;;;;;;5030890;28;20033;-84
2021/09/19 02:26:24;;;;;;;6.43;5.45;;;14.20;99.90;;;;;;5049305;28;20064;-84
2021/09/19 02:28:50;;;;;;;7.07;5.95;;;14.20;99.90;;;;;;5022978;28;20126;-83
2021/09/19 02:31:16;;;;;;;8.90;7.00;;;14.20;99.90;;;;;;5035321;28;20036;-85
2021/09/19 02:33:42;;;;;;;9.43;6.50;;;14.20;99.90;;;;;;5042790;28;20096;-84
2021/09/19 02:36:08;;;;;;;6.78;5.70;;;14.20;99.90;;;;;;5029442;28;20156;-84
2021/09/19 02:38:34;;;;;;;6.70;5.95;;;14.20;99.90;;;;;;5032607;28;20049;-84
2021/09/19 02:41:00;;;;;;;6.82;5.95;;;14.20;99.90;;;;;;5022226;28;20084;-84
2021/09/19 02:43:26;;;;;;;8.27;7.07;;;14.30;99.90;;;;;;5034673;28;20017;-85
2021/09/19 02:45:54;;;;;;;7.78;6.45;;;14.30;99.90;;;;;;5026470;28;20044;-85
2021/09/19 02:48:20;;;;;;;8.38;5.90;;;14.30;99.90;;;;;;5027405;28;20032;-84
2021/09/19 02:50:46;;;;;;;6.32;5.38;;;14.20;99.90;;;;;;5033420;28;20029;-84
2021/09/19 02:53:12;;;;;;;8.88;5.90;;;14.20;99.90;;;;;;5022111;28;20037;-84
2021/09/19 02:55:38;;;;;;;5.95;5.22;;;14.20;99.90;;;;;;5032976;28;20433;-84
2021/09/19 02:58:04;;;;;;;6.43;5.18;;;14.20;99.90;;;;;;5027761;28;20025;-84
2021/09/19 03:00:33;;;;;;;5.90;5.20;;;14.10;99.90;;;;;;5025810;28;20029;-84
2021/09/19 03:03:00;;;;;;;7.45;6.05;;;14.20;99.90;;;;;;5034846;28;20087;-84
2021/09/19 03:05:26;;;;;;;6.68;5.95;;;14.10;99.90;;;;;;5022336;28;20044;-84
2021/09/19 03:07:55;;;;;;;7.75;5.72;;;14.10;99.90;;;;;;5030981;28;20026;-84
2021/09/19 03:10:21;;;;;;;7.32;6.25;;;14.10;99.90;;;;;;5029405;28;20119;-84
2021/09/19 03:12:47;;;;;;;6.88;5.88;;;14.10;99.90;;;;;;5023384;28;20029;-84
2021/09/19 03:15:13;;;;;;;7.72;6.50;;;14.10;99.90;;;;;;5034336;28;20021;-83
2021/09/19 03:17:40;;;;;;;7.45;6.00;;;14.10;99.90;;;;;;5023965;28;20116;-84
2021/09/19 03:20:11;;;;;;;7.05;6.03;;;14.10;99.90;;;;;;5028881;28;20025;-84
2021/09/19 03:22:38;;;;;;;7.05;6.03;;;14.10;99.90;;;;;;5031610;28;20532;-84
2021/09/19 03:25:06;;;;;;;7.88;6.55;;;14.20;99.90;;;;;;5021754;28;20423;-84
2021/09/19 03:27:32;;;;;;;9.65;6.88;;;14.20;99.90;;;;;;5033068;28;20053;-84
2021/09/19 03:29:58;;;;;;;7.53;6.00;;;14.30;99.90;;;;;;5026448;28;20033;-84
2021/09/19 03:32:25;;;;;;;6.75;5.93;;;14.30;99.90;;;;;;5025920;28;20030;-84
2021/09/19 03:34:51;;;;;;;7.18;5.63;;;14.30;99.90;;;;;;5051174;28;20021;-84
2021/09/19 03:37:17;;;;;;;7.78;6.97;;;14.20;99.90;;;;;;5021443;28;20031;-84
2021/09/19 03:39:43;;;;;;;6.57;5.50;;;14.20;99.90;;;;;;5031670;28;20120;-85
2021/09/19 03:42:09;;;;;;;7.78;6.35;;;14.20;99.90;;;;;;5027592;28;20464;-84
2021/09/19 03:44:35;;;;;;;6.15;5.55;;;14.10;99.90;;;;;;5024398;28;20025;-84
2021/09/19 03:47:01;;;;;;;6.40;5.70;;;14.20;99.90;;;;;;5051956;28;20033;-84
2021/09/19 03:49:27;;;;;;;6.28;5.53;;;14.10;99.90;;;;;;5021736;28;20017;-84
2021/09/19 03:51:54;;;;;;;7.75;6.40;;;14.10;99.90;;;;;;5029820;28;20481;-85
2021/09/19 03:54:20;;;;;;;7.75;6.38;;;14.10;99.90;;;;;;5029007;28;20021;-84
2021/09/19 03:56:46;;;;;;;7.50;6.68;;;14.00;99.90;;;;;;5022654;28;20021;-84
2021/09/19 03:59:12;;;;;;;7.13;6.07;;;14.00;99.90;;;;;;5033819;28;20036;-84
2021/09/19 04:01:38;;;;;;;7.43;6.50;;;14.00;99.90;;;;;;5023104;28;20017;-84
2021/09/19 04:04:05;;;;;;;7.22;5.88;;;14.00;99.90;;;;;;5046133;28;20500;-85
2021/09/19 04:06:31;;;;;;;8.05;6.20;;;14.00;99.90;;;;;;5030268;28;20385;-84
2021/09/19 04:08:57;;;;;;;8.20;7.22;;;14.00;99.90;;;;;;5020761;28;20029;-84
2021/09/19 04:11:23;;;;;;;9.10;6.35;;;14.00;99.90;;;;;;5017161;28;20408;-84
2021/09/19 04:13:49;;;;;;;8.20;6.50;;;14.00;99.90;;;;;;5026574;28;20026;-83
2021/09/19 04:16:15;;;;;;;7.32;6.38;;;14.00;99.90;;;;;;5024400;28;20030;-84
2021/09/19 04:18:42;;;;;;;7.72;6.22;;;14.10;99.90;;;;;;5019548;28;20061;-84
2021/09/19 04:21:08;;;;;;;6.78;5.50;;;14.10;99.90;;;;;;5031164;28;20105;-83
2021/09/19 04:23:33;;;;;;;7.47;6.07;;;14.00;99.90;;;;;;5018786;28;20116;-84
2021/09/19 04:25:59;;;;;;;8.00;5.82;;;14.00;99.90;;;;;;5033510;28;20448;-84
2021/09/19 04:28:26;;;;;;;7.32;5.95;;;14.00;99.90;;;;;;5021302;28;20064;-85
2021/09/19 04:30:51;;;;;;;7.68;6.30;;;14.00;99.90;;;;;;5029296;28;20053;-84
2021/09/19 04:33:17;;;;;;;7.47;6.15;;;14.00;99.90;;;;;;5017023;28;20068;-84
2021/09/19 04:35:43;;;;;;;7.70;6.35;;;14.00;99.90;;;;;;5026954;28;20026;-84
2021/09/19 04:38:10;;;;;;;6.82;5.97;;;14.00;99.90;;;;;;5024997;28;20030;-84
2021/09/19 04:40:37;;;;;;;7.10;6.30;;;14.00;99.90;;;;;;5019785;28;20168;-84
2021/09/19 04:43:03;;;;;;;7.45;6.50;;;14.00;99.90;;;;;;5029720;28;20075;-84
2021/09/19 04:45:28;;;;;;;7.05;5.85;;;14.00;99.90;;;;;;5028881;28;20124;-83
2021/09/19 04:47:55;;;;;;;7.55;6.15;;;13.90;99.90;;;;;;5021180;28;20033;-84
2021/09/19 04:50:21;;;;;;;7.05;5.93;;;14.00;99.90;;;;;;5021795;28;20026;-84
2021/09/19 04:52:48;;;;;;;6.97;5.85;;;14.00;99.90;;;;;;5028319;28;20032;-85
2021/09/19 04:55:14;;;;;;;7.15;6.13;;;14.00;99.90;;;;;;5017645;28;20030;-84
2021/09/19 04:57:40;;;;;;;6.78;6.07;;;14.00;99.90;;;;;;5027284;28;20030;-84
2021/09/19 05:00:06;;;;;;;7.10;5.32;;;14.00;99.90;;;;;;5023636;28;20037;-84
2021/09/19 05:02:33;;;;;;;6.75;6.05;;;14.00;99.90;;;;;;5019970;28;20029;-84
2021/09/19 05:04:59;;;;;;;7.60;5.97;;;14.00;99.90;;;;;;5029403;28;20035;-85
2021/09/19 05:07:25;;;;;;;6.05;5.30;;;14.00;99.90;;;;;;5016690;28;20108;-85
2021/09/19 05:09:50;;;;;;;7.07;6.00;;;13.90;99.90;;;;;;5025124;28;20093;-84
2021/09/19 05:12:17;;;;;;;6.82;5.80;;;13.90;99.90;;;;;;5023610;28;20017;-84
2021/09/19 05:14:44;;;;;;;7.60;6.80;;;13.80;99.90;;;;;;5032731;28;20448;-84
2021/09/19 05:17:11;;;;;;;7.90;7.03;;;13.80;99.90;;;;;;5015804;28;20034;-84
2021/09/19 05:19:40;;;;;;;8.13;7.28;;;13.70;99.90;;;;;;5026589;28;20030;-84
2021/09/19 05:22:07;;;;;;;8.45;7.45;;;13.70;99.90;;;;;;5021499;28;20032;-83
2021/09/19 05:24:33;;;;;;;6.93;6.15;;;13.60;99.90;;;;;;5019509;28;20026;-83
2021/09/19 05:26:59;;;;;;;7.55;6.13;;;13.60;99.90;;;;;;5030039;28;20026;-84
2021/09/19 05:29:26;;;;;;;6.85;5.68;;;13.60;99.90;;;;;;5014828;28;20033;-83
2021/09/19 05:31:52;;;;;;;7.13;5.80;;;13.50;99.90;;;;;;5020826;28;20037;-83
2021/09/19 05:34:19;;;;;;;7.57;6.03;;;13.50;99.90;;;;;;5018397;28;20022;-82
2021/09/19 05:36:45;;;;;;;7.40;6.10;;;13.50;99.90;;;;;;5020388;28;20021;-83
2021/09/19 05:39:11;;;;;;;6.50;5.65;;;13.40;99.90;;;;;;5018604;28;20445;-83
2021/09/19 05:41:38;;;;;;;6.65;5.57;;;13.40;99.90;;;;;;5022220;28;20063;-84
2021/09/19 05:44:05;;;;;;;7.80;5.70;;;13.40;99.90;;;;;;5020518;28;20535;-83
2021/09/19 05:46:31;;;;;;;6.63;5.47;;;13.40;99.90;;;;;;5018532;28;20026;-84
2021/09/19 05:48:59;;;;;;;5.93;4.97;;;13.40;99.90;;;;;;5020811;28;20057;-83
2021/09/19 05:51:26;;;;;;;7.57;6.38;;;13.40;99.90;;;;;;5027138;28;20033;-84
2021/09/19 05:53:52;;;;;;;6.72;6.03;;;13.40;99.90;;;;;;5016573;28;20394;-83
2021/09/19 05:56:18;;;;;;;6.63;5.82;;;13.40;99.90;;;;;;5019053;28;20053;-83
2021/09/19 05:58:44;;;;;;;7.88;6.47;;;13.40;99.90;;;;;;5024163;28;20469;-83
2021/09/19 06:01:11;;;;;;;7.28;6.25;;;13.40;99.90;;;;;;5013467;28;20026;-83
2021/09/19 06:03:38;;;;;;;6.93;5.55;;;13.40;99.90;;;;;;5024610;28;20029;-83
2021/09/19 06:06:04;;;;;;;8.25;6.00;;;13.40;99.90;;;;;;5020028;28;20575;-83
2021/09/19 06:08:30;;;;;;;7.50;6.15;;;13.40;99.90;;;;;;5018539;28;20021;-83
2021/09/19 06:10:57;;;;;;;7.57;6.25;;;13.40;99.90;;;;;;5009161;28;20601;-83
2021/09/19 06:13:24;;;;;;;8.95;6.10;;;13.40;99.90;;;;;;5010232;28;20495;-83
2021/09/19 06:15:51;;;;;;;7.47;6.07;;;13.40;99.90;;;;;;5030118;28;20041;-83
2021/09/19 06:18:17;;;;;;;7.82;6.20;;;13.40;99.90;;;;;;5018896;28;20026;-83
2021/09/19 06:20:45;;;;;;;7.53;6.20;;;13.40;99.90;;;;;;5024267;28;20035;-84
2021/09/19 06:23:11;;;;;;;6.85;6.15;;;13.40;99.90;;;;;;5013015;28;20022;-83
2021/09/19 06:25:36;;;;;;;7.30;6.25;;;13.40;99.90;;;;;;5024256;28;20137;-83
2021/09/19 06:28:03;;;;;;;7.38;6.47;;;13.50;99.90;;;;;;5018732;28;20022;-83
2021/09/19 06:30:29;;;;;;;9.05;6.40;;;13.40;99.90;;;;;;5029513;28;20026;-83
2021/09/19 06:32:56;;;;;;;7.68;5.95;;;13.50;99.90;;;;;;5013592;28;20034;-83
2021/09/19 06:35:22;;;;;;;8.40;6.50;;;13.50;99.90;;;;;;5030005;28;20048;-83
2021/09/19 06:37:48;;;;;;;7.00;6.00;;;13.50;99.90;;;;;;5022612;28;20021;-84
2021/09/19 06:40:14;;;;;;;7.63;5.93;;;13.60;99.90;;;;;;5020006;28;20072;-83
2021/09/19 06:42:41;;;;;;;8.38;7.32;;;13.60;99.90;;;;;;5015448;28;20443;-83
2021/09/19 06:45:07;;;;;;;8.07;6.30;;;13.60;99.90;;;;;;5028483;28;20029;-83
2021/09/19 06:47:33;;;;;;;7.28;6.13;;;13.70;99.90;;;;;;5025796;28;20084;-84
2021/09/19 06:49:59;;;;;;;8.85;6.63;;;13.70;99.90;;;;;;5018196;28;20045;-84
2021/09/19 06:52:25;;;;;;;8.65;6.57;;;13.80;99.90;;;;;;5029869;28;20049;-83
2021/09/19 06:54:52;;;;;;;7.93;6.82;;;13.90;99.90;;;;;;5029240;28;20116;-83
2021/09/19 06:57:18;;;;;;;7.03;5.95;;;13.90;99.90;;;;;;5014554;28;20030;-84
2021/09/19 06:59:44;;;;;;;7.70;6.25;;;14.00;99.90;;;;;;5016453;28;20038;-84
2021/09/19 07:02:10;;;;;;;7.50;5.90;;;14.00;99.90;;;;;;5019542;28;20127;-83
2021/09/19 07:04:36;;;;;;;8.07;6.50;;;14.00;99.90;;;;;;5019522;28;20462;-83
2021/09/19 07:07:02;;;;;;;9.25;6.90;;;14.00;99.90;;;;;;5023151;28;20025;-83
2021/09/19 07:09:28;;;;;;;7.35;6.43;;;14.00;99.90;;;;;;5024765;28;20055;-83
2021/09/19 07:11:54;;;;;;;8.55;6.82;;;14.00;99.90;;;;;;5020928;28;20048;-84
2021/09/19 07:14:20;;;;;;;7.03;5.88;;;14.00;99.90;;;;;;5029851;28;20044;-83
2021/09/19 07:16:46;;;;;;;7.90;6.38;;;14.10;99.90;;;;;;5028459;28;20030;-84
2021/09/19 07:19:14;;;;;;;7.15;6.07;;;14.10;99.90;;;;;;5023934;28;20040;-83
2021/09/19 07:21:40;;;;;;;7.78;6.40;;;14.20;99.90;;;;;;5019913;28;20029;-84
2021/09/19 07:24:06;;;;;;;7.70;6.07;;;14.20;99.90;;;;;;5032481;28;20061;-84
2021/09/19 07:26:33;;;;;;;7.28;6.35;;;14.30;99.90;;;;;;5040214;28;20075;-84
2021/09/19 07:28:59;;;;;;;7.30;6.07;;;14.30;99.90;;;;;;5020874;28;20119;-84
2021/09/19 07:31:26;;;;;;;8.90;6.35;;;14.30;99.90;;;;;;5045562;28;20377;-84
2021/09/19 07:33:53;;;;;;;7.93;6.53;;;14.40;99.90;;;;;;5026388;28;20040;-84
2021/09/19 07:36:31;;;;;;;7.55;6.22;;;14.40;99.90;;;;;;5043928;28;20131;-84
2021/09/19 07:39:02;;;;;;;8.40;6.40;;;14.50;99.90;;;;;;5028172;28;20010;-84
2021/09/19 07:41:32;;;;;;;7.53;5.75;;;14.60;99.90;;;;;;5028938;28;20045;-83
2021/09/19 07:44:00;;;;;;;6.85;5.88;;;14.60;99.90;;;;;;5026775;28;20115;-84
2021/09/19 07:46:28;;;;;;;7.18;5.68;;;14.70;99.90;;;;;;5043609;28;20436;-84
2021/09/19 07:48:55;;;;;;;6.75;5.72;;;14.70;99.90;;;;;;5027895;28;20040;-85
2021/09/19 07:51:23;;;;;;;7.35;5.38;;;14.80;99.90;;;;;;5026403;28;20527;-84
2021/09/19 07:53:51;;;;;;;7.28;5.18;;;14.90;99.90;;;;;;5026437;28;20035;-83
2021/09/19 07:56:19;;;;;;;7.45;5.82;;;15.00;99.90;;;;;;5028343;28;20412;-84
2021/09/19 07:58:45;;;;;;;7.55;5.68;;;15.10;99.90;;;;;;5026828;28;20022;-85
2021/09/19 08:01:11;;;;;;;7.25;5.55;;;15.20;99.90;;;;;;5026109;28;20499;-83
2021/09/19 08:03:38;;;;;;;7.57;5.25;;;15.30;99.90;;;;;;5027892;28;20013;-84
2021/09/19 08:06:08;;;;;;;8.25;6.68;;;15.40;99.90;;;;;;5044187;28;20087;-85
2021/09/19 08:08:34;;;;;;;6.25;5.18;;;15.60;99.90;;;;;;5021084;28;20025;-85
2021/09/19 08:11:03;;;;;;;6.88;5.55;;;15.80;99.90;;;;;;5021141;28;20073;-85
2021/09/19 08:13:29;;;;;;;7.22;5.97;;;15.90;99.90;;;;;;5038155;28;20040;-86
2021/09/19 08:15:58;;;;;;;6.85;5.30;;;16.00;99.90;;;;;;5020775;28;20030;-85
2021/09/19 08:18:26;;;;;;;7.55;6.72;;;16.00;99.90;;;;;;5036521;28;20108;-85
2021/09/19 08:20:52;;;;;;;7.70;5.95;;;16.10;99.90;;;;;;5021947;28;20029;-85
2021/09/19 08:23:20;;;;;;;6.00;4.82;;;16.10;99.90;;;;;;5040758;28;20017;-84
2021/09/19 08:25:47;;;;;;;6.78;5.53;;;16.20;99.90;;;;;;5041277;28;20136;-84
2021/09/19 08:28:19;;;;;;;5.97;5.05;;;16.20;99.90;;;;;;5025320;28;20033;-83
2021/09/19 08:30:46;;;;;;;9.23;5.28;;;16.30;99.90;;;;;;5042094;28;20018;-84
2021/09/19 08:33:13;;;;;;;5.90;4.45;;;16.40;99.90;;;;;;5023209;28;20021;-84
2021/09/19 08:35:39;;;;;;;5.97;5.15;;;16.40;99.90;;;;;;5025349;28;20025;-85
2021/09/19 08:38:07;;;;;;;6.05;5.13;;;16.50;99.90;;;;;;5025604;28;20028;-85
2021/09/19 08:40:33;;;;;;;5.53;4.70;;;16.60;99.90;;;;;;5025893;28;20048;-85
2021/09/19 08:43:00;;;;;;;5.43;4.40;;;16.70;99.90;;;;;;5023056;28;20025;-84
2021/09/19 08:45:27;;;;;;;5.25;4.22;;;16.70;99.90;;;;;;5023361;28;20465;-84
2021/09/19 08:47:53;;;;;;;7.07;6.35;;;16.80;99.90;;;;;;5006619;28;20053;-85
2021/09/19 08:50:21;;;;;;;7.70;5.88;;;16.90;99.90;;;;;;5022316;28;20025;-84
2021/09/19 08:52:49;;;;;;;6.97;4.90;;;17.00;99.90;;;;;;5024341;28;20041;-86
2021/09/19 08:55:16;;;;;;;5.53;4.68;;;17.10;99.90;;;;;;5022763;28;20013;-86
2021/09/19 08:57:46;;;;;;;4.75;3.58;;;17.20;99.90;;;;;;5024183;28;20021;-85
2021/09/19 09:00:18;;;;;;;4.60;3.80;;;17.30;99.90;;;;;;5008272;28;20531;-85
2021/09/19 09:02:50;;;;;;;5.95;4.20;;;17.40;99.90;;;;;;5023592;28;20027;-85
2021/09/19 09:05:37;;;;;;;7.50;4.90;;;17.40;99.90;;;;;;5009358;28;20132;-85
2021/09/19 09:08:04;;;;;;;4.78;3.92;;;17.60;99.90;;;;;;5007198;28;20029;-84
2021/09/19 09:10:41;;;;;;;3.97;3.28;;;17.70;99.90;;;;;;5026481;28;20585;-85
2021/09/19 09:13:20;;;;;;;4.18;3.35;;;17.80;99.90;;;;;;5013923;28;20036;-87
2021/09/19 09:16:12;;;;;;;4.80;3.47;;;18.00;99.90;;;;;;5023872;28;20393;-86
2021/09/19 09:18:53;;;;;;;4.88;3.30;;;18.10;99.90;;;;;;5024403;28;20029;-87
2021/09/19 09:21:36;;;;;;;3.78;3.10;;;18.10;99.90;;;;;;5015718;28;20033;-86
2021/09/19 09:24:03;;;;;;;4.60;3.65;;;18.20;99.90;;;;;;5002468;28;20032;-85
2021/09/19 09:26:40;;;;;;;5.22;3.75;;;18.30;99.90;;;;;;5011694;28;20030;-86
2021/09/19 09:29:14;;;;;;;3.95;3.22;;;18.40;99.90;;;;;;5026665;28;20024;-87
2021/09/19 09:31:50;;;;;;;4.07;3.22;;;18.60;99.90;;;;;;5015110;28;20030;-85
2021/09/19 09:34:28;;;;;;;3.35;2.72;;;18.70;99.90;;;;;;5002283;28;20517;-86
2021/09/19 09:37:10;;;;;;;5.65;3.10;;;19.00;99.90;;;;;;5024730;28;20030;-86
2021/09/19 09:39:48;;;;;;;3.47;2.47;;;20.10;99.90;;;;;;4993471;28;20451;-86
2021/09/19 09:42:20;;;;;;;2.97;2.40;;;21.60;99.90;;;;;;5019147;28;20038;-86
2021/09/19 09:44:54;;;;;;;3.15;2.30;;;23.00;99.90;;;;;;5015081;28;20022;-87
2021/09/19 09:47:29;;;;;;;3.22;2.03;;;24.20;99.90;;;;;;5024001;28;20064;-87
2021/09/19 09:50:02;;;;;;;2.78;2.33;;;25.00;99.90;;;;;;5020053;28;20374;-88
2021/09/19 09:52:35;;;;;;;2.90;1.90;;;25.70;99.90;;;;;;5019769;28;20087;-88
2021/09/19 09:55:10;;;;;;;2.30;1.65;;;26.30;99.90;;;;;;5028514;28;20029;-87
2021/09/19 09:58:13;;;;;;;2.20;1.80;;;26.50;99.90;;;;;;5017255;28;20026;-87
2021/09/19 10:00:40;;;;;;;;;;;27.00;99.90;;;;;;4942748;29;20066;-87
2021/09/19 10:03:31;;;;;;;3.33;1.77;;;26.90;99.90;;;;;;4936336;28;19917;-86
2021/09/19 10:05:57;;;;;;;1.40;1.10;;;27.40;99.90;;;;;;4960615;28;20031;-86
2021/09/19 10:08:24;;;;;;;2.72;1.13;;;27.90;99.90;;;;;;4974618;28;20212;-86
2021/09/19 10:10:56;;;;;;;1.55;1.05;;;28.40;99.90;;;;;;5015764;28;20046;-86
2021/09/19 10:13:22;;;;;;;5.22;1.80;;;29.00;99.90;;;;;;5028391;28;20030;-85
2021/09/19 10:15:52;;;;;;;2.85;1.27;;;29.10;96.90;;;;;;5018419;28;20092;-86
2021/09/19 10:18:19;;;;;;;1.25;1.10;;;29.00;96.60;;;;;;5004721;28;20026;-86
2021/09/19 10:20:48;;;;;;;1.92;1.17;;;29.20;95.50;;;;;;5010880;28;20091;-86
2021/09/19 10:23:33;;;;;;;1.60;1.10;;;29.20;95.10;;;;;;5015394;28;20137;-86
2021/09/19 10:26:12;;;;;;;1.65;1.00;;;29.50;95.20;;;;;;5007356;28;20476;-86
2021/09/19 10:28:46;;;;;;;1.50;1.00;;;29.80;94.50;;;;;;5026988;28;20021;-85
2021/09/19 10:31:28;;;;;;;1.67;1.00;;;29.90;94.10;;;;;;5013356;28;20734;-86
2021/09/19 10:34:10;;;;;;;1.65;0.90;;;30.20;94.00;;;;;;5019440;28;20033;-86
2021/09/19 10:36:52;;;;;;;1.98;0.85;;;30.50;92.90;;;;;;5018098;28;20474;-86
2021/09/19 10:39:25;;;;;;;2.40;0.90;;;30.50;91.90;;;;;;5028326;28;20439;-86
2021/09/19 10:42:15;;;;;;;1.60;0.90;;;30.70;91.80;;;;;;5022962;28;20028;-87
2021/09/19 10:44:45;;;;;;;1.55;0.93;;;31.10;91.30;;;;;;5035741;28;20029;-86
2021/09/19 10:47:13;;;;;;;1.17;0.65;;;31.30;91.00;;;;;;5019840;28;20088;-86
2021/09/19 10:49:40;;;;;;;1.65;1.00;;;31.30;90.60;;;;;;5031259;28;20032;-86
2021/09/19 10:52:17;;;;;;;1.60;1.15;;;31.60;90.20;;;;;;5024886;28;20124;-86
2021/09/19 10:54:53;;;;;;;1.40;1.05;;;31.80;88.30;;;;;;5020886;28;20022;-86
2021/09/19 10:57:33;;;;;;;1.55;1.02;;;31.90;87.60;;;;;;5034664;28;20397;-87
2021/09/19 11:00:12;;;;;;;1.90;1.10;;;32.00;87.00;;;;;;5024098;28;20033;-86
2021/09/19 11:02:42;;;;;;;0.88;0.57;;;32.00;86.00;;;;;;5027785;28;20374;-86
2021/09/19 11:05:33;;;;;;;1.38;1.05;;;32.00;85.80;;;;;;4997887;28;20022;-87
2021/09/19 11:08:18;;;;;;;1.45;0.90;;;32.40;85.50;;;;;;5022900;28;20037;-87
2021/09/19 11:10:55;;;;;;;1.35;0.98;;;32.90;84.60;;;;;;5017807;28;20054;-87
2021/09/19 11:13:27;;;;;;;1.00;0.80;;;33.20;83.20;;;;;;5030870;28;20065;-86
2021/09/19 11:16:02;;;;;;;1.55;1.25;;;33.30;82.00;;;;;;5020237;28;20052;-85
2021/09/19 11:18:47;;;;;;;1.98;1.10;;;33.20;79.60;;;;;;5032946;28;20056;-86
2021/09/19 11:21:26;;;;;;;2.00;1.10;;;32.60;79.50;;;;;;5015198;28;20466;-86
2021/09/19 11:24:02;;;;;;;1.23;0.90;;;32.40;79.60;;;;;;5025464;28;20080;-87
2021/09/19 11:26:33;;;;;;;0.93;0.75;;;32.70;79.20;;;;;;5025072;28;20049;-86
2021/09/19 11:29:08;;;;;;;1.73;0.80;;;32.70;78.80;;;;;;5015943;28;20049;-86
2021/09/19 11:31:36;;;;;;;1.05;0.75;;;32.70;78.40;;;;;;5017729;28;20057;-86
2021/09/19 11:34:08;;;;;;;1.90;0.93;;;32.80;78.10;;;;;;5012605;28;20033;-87
2021/09/19 11:36:43;;;;;;;1.05;0.75;;;33.00;77.50;;;;;;5025563;28;20037;-87
2021/09/19 11:39:11;;;;;;;1.73;1.30;;;33.30;76.60;;;;;;5015483;28;20490;-88
2021/09/19 11:41:41;;;;;;;0.93;0.80;;;33.40;74.70;;;;;;5010511;28;20125;-87
2021/09/19 11:44:11;;;;;;;1.83;0.90;;;32.70;73.50;;;;;;5021872;28;20125;-85
2021/09/19 11:46:43;;;;;;;1.50;1.20;;;32.10;74.80;;;;;;5032064;28;20489;-86
2021/09/19 11:49:10;;;;;;;1.77;0.98;;;31.50;74.40;;;;;;4999260;28;20041;-86
2021/09/19 11:51:41;;;;;;;1.08;0.80;;;30.90;75.40;;;;;;5025579;28;20437;-86
2021/09/19 11:54:11;;;;;;;0.80;0.70;;;30.50;77.10;;;;;;5021827;28;20025;-87
2021/09/19 11:56:47;;;;;;;2.03;0.55;;;30.70;77.00;;;;;;5033458;28;20025;-87
2021/09/19 11:59:16;;;;;;;1.10;0.75;;;30.70;76.60;;;;;;5016406;28;20065;-86
2021/09/19 12:01:43;;;;;;;1.05;0.55;;;30.50;76.80;;;;;;5032239;28;20112;-87
2021/09/19 12:04:12;;;;;;;1.00;0.50;;;30.20;77.60;;;;;;5023276;28;20052;-87
2021/09/19 12:06:41;;;;;;;1.08;0.70;;;30.00;77.90;;;;;;5009865;28;20079;-87
2021/09/19 12:09:37;;;;;;;1.05;0.75;;;29.70;78.20;;;;;;5015332;28;20470;-87
2021/09/19 12:12:13;;;;;;;0.95;0.60;;;29.60;78.60;;;;;;5038551;28;20050;-87
2021/09/19 12:14:44;;;;;;;3.08;0.80;;;30.20;78.50;;;;;;5029390;28;20043;-86
2021/09/19 12:17:12;;;;;;;0.95;0.77;;;30.40;77.30;;;;;;5032446;28;20029;-86
2021/09/19 12:19:48;;;;;;;2.13;1.00;;;30.50;77.20;;;;;;5038774;28;20128;-86
2021/09/19 12:22:35;;;;;;;1.90;0.98;;;31.00;75.70;;;;;;5038832;28;20131;-86
2021/09/19 12:25:06;;;;;;;1.08;0.80;;;30.80;75.10;;;;;;5031503;28;20053;-85
2021/09/19 12:27:45;;;;;;;2.75;1.10;;;31.00;75.90;;;;;;5047245;28;20132;-85
2021/09/19 12:30:17;;;;;;;1.25;1.00;;;31.10;74.10;;;;;;5007464;28;20029;-86
2021/09/19 12:32:55;;;;;;;2.35;1.00;;;31.30;74.50;;;;;;5020311;28;20041;-87
2021/09/19 12:35:40;;;;;;;0.80;0.70;;;31.70;73.80;;;;;;5001820;28;20362;-86
2021/09/19 12:38:29;;;;;;;1.48;1.00;;;32.00;73.70;;;;;;5025381;28;20217;-86
2021/09/19 12:41:04;;;;;;;0.77;0.65;;;32.30;73.60;;;;;;5030233;28;20501;-85
2021/09/19 12:43:31;;;;;;;1.10;0.75;;;32.50;73.30;;;;;;4999412;28;20028;-86
2021/09/19 12:45:59;;;;;;;1.40;0.90;;;32.60;73.10;;;;;;5013365;28;20672;-86
2021/09/19 12:48:28;;;;;;;1.05;0.70;;;32.50;72.30;;;;;;5041030;28;20083;-85
2021/09/19 12:50:57;;;;;;;2.13;1.25;;;32.40;72.50;;;;;;5030570;28;20508;-85
2021/09/19 12:53:27;;;;;;;1.23;1.00;;;32.20;72.10;;;;;;5001492;28;20032;-85
2021/09/19 12:55:57;;;;;;;1.35;0.82;;;31.50;72.40;;;;;;5034592;28;20029;-86
2021/09/19 12:58:28;;;;;;;0.90;0.77;;;31.30;73.60;;;;;;5040123;28;20122;-86